createdAt,value
2017-12-06T00:00:14.521Z,57.70
2017-12-06T00:02:40.921Z,57.51
2017-12-06T00:05:07.281Z,54.76
2017-12-06T00:07:33.736Z,56.25
2017-12-06T00:10:00.077Z,54.60
2017-12-06T00:12:32.576Z,55.90
2017-12-06T00:15:05.024Z,55.29
2017-12-06T00:17:31.384Z,56.44
2017-12-06T00:19:57.751Z,59.26
2017-12-06T00:22:24.165Z,60.54
2017-12-06T00:24:50.597Z,54.26
2017-12-06T00:27:17.081Z,54.32
2017-12-06T00:29:43.473Z,54.28
2017-12-06T00:32:09.820Z,57.70
2017-12-06T00:34:36.155Z,55.88
2017-12-06T00:37:02.553Z,61.27
2017-12-06T00:39:28.912Z,54.78
2017-12-06T00:41:55.236Z,58.42
2017-12-06T00:44:22.992Z,55.65
2017-12-06T00:46:49.468Z,57.11
2017-12-06T00:49:17.796Z,53.95
2017-12-06T00:51:44.184Z,56.54
2017-12-06T00:54:10.649Z,53.19
2017-12-06T00:56:37.188Z,56.69
2017-12-06T00:59:05.014Z,54.02
2017-12-06T01:01:31.352Z,56.86
2017-12-06T01:03:57.696Z,59.58
2017-12-06T01:06:24.113Z,54.29
2017-12-06T01:08:50.476Z,58.07
2017-12-06T01:11:16.829Z,53.51
2017-12-06T01:13:43.233Z,53.13
2017-12-06T01:16:09.740Z,57.48
2017-12-06T01:18:36.201Z,52.92
2017-12-06T01:21:02.740Z,54.17
2017-12-06T01:23:29.245Z,53.53
2017-12-06T01:25:55.781Z,55.74
2017-12-06T01:28:22.264Z,53.69
2017-12-06T01:30:48.696Z,55.93
2017-12-06T01:33:15.186Z,56.21
2017-12-06T01:35:41.723Z,58.54
2017-12-06T01:38:08.137Z,52.82
2017-12-06T01:40:34.567Z,53.02
2017-12-06T01:43:01.120Z,53.74
2017-12-06T01:45:27.571Z,55.32
2017-12-06T01:47:53.960Z,56.80
2017-12-06T01:50:20.419Z,57.52
2017-12-06T01:52:46.828Z,51.62
2017-12-06T01:55:13.260Z,52.24
2017-12-06T01:57:39.936Z,54.99
2017-12-06T02:00:06.612Z,52.78
2017-12-06T02:02:33.435Z,60.08
2017-12-06T02:04:59.943Z,51.55
2017-12-06T02:07:26.317Z,51.85
2017-12-06T02:09:52.705Z,55.69
2017-12-06T02:12:19.158Z,52.02
2017-12-06T02:14:45.553Z,55.46
2017-12-06T02:17:12.208Z,51.53
2017-12-06T02:19:38.675Z,51.99
2017-12-06T02:22:05.130Z,51.99
2017-12-06T02:24:31.709Z,53.96
2017-12-06T02:26:58.225Z,51.06
2017-12-06T02:29:24.706Z,51.99
2017-12-06T02:31:51.117Z,51.54
2017-12-06T02:34:17.600Z,50.59
2017-12-06T02:36:43.988Z,51.01
2017-12-06T02:39:10.420Z,51.72
2017-12-06T02:41:49.197Z,55.03
2017-12-06T02:44:27.591Z,52.84
2017-12-06T02:46:53.936Z,50.08
2017-12-06T02:49:20.424Z,52.13
2017-12-06T02:51:46.820Z,57.51
2017-12-06T02:54:13.228Z,50.87
2017-12-06T02:56:40.010Z,50.92
2017-12-06T02:59:06.559Z,53.44
2017-12-06T03:01:32.992Z,51.68
2017-12-06T03:03:59.348Z,53.38
2017-12-06T03:06:25.755Z,49.97
2017-12-06T03:08:52.160Z,52.26
2017-12-06T03:11:18.560Z,49.88
2017-12-06T03:13:44.936Z,51.14
2017-12-06T03:16:11.407Z,50.83
2017-12-06T03:18:37.793Z,52.31
2017-12-06T03:21:04.156Z,49.53
2017-12-06T03:23:30.642Z,53.62
2017-12-06T03:25:56.976Z,50.78
2017-12-06T03:28:23.338Z,54.34
2017-12-06T03:30:49.891Z,50.83
2017-12-06T03:33:16.320Z,52.09
2017-12-06T03:35:42.668Z,49.11
2017-12-06T03:38:09.052Z,55.13
2017-12-06T03:40:35.387Z,51.43
2017-12-06T03:43:01.748Z,50.41
2017-12-06T03:45:28.147Z,50.87
2017-12-06T03:47:54.540Z,49.51
2017-12-06T03:50:20.881Z,53.93
2017-12-06T03:52:47.308Z,50.83
2017-12-06T03:55:13.655Z,50.66
2017-12-06T03:57:40.007Z,52.08
2017-12-06T04:00:06.407Z,49.58
2017-12-06T04:02:33.947Z,50.96
2017-12-06T04:05:01.000Z,50.67
2017-12-06T04:07:29.153Z,54.49
2017-12-06T04:09:57.041Z,53.36
2017-12-06T04:12:24.244Z,53.49
2017-12-06T04:14:50.976Z,56.43
2017-12-06T04:17:17.317Z,51.00
2017-12-06T04:19:43.700Z,56.29
2017-12-06T04:22:10.081Z,50.40
2017-12-06T04:24:36.439Z,53.74
2017-12-06T04:27:02.885Z,50.73
2017-12-06T04:29:29.301Z,54.93
2017-12-06T04:31:55.683Z,51.25
2017-12-06T04:34:22.039Z,51.87
2017-12-06T04:36:48.468Z,50.85
2017-12-06T04:39:14.864Z,51.00
2017-12-06T04:41:41.401Z,50.60
2017-12-06T04:44:08.006Z,51.08
2017-12-06T04:46:34.373Z,52.72
2017-12-06T04:49:00.744Z,50.97
2017-12-06T04:51:27.169Z,51.15
2017-12-06T04:53:53.559Z,51.25
2017-12-06T04:56:19.909Z,51.16
2017-12-06T04:58:46.286Z,51.43
2017-12-06T05:01:12.644Z,51.54
2017-12-06T05:03:38.991Z,51.33
2017-12-06T05:06:05.494Z,52.40
2017-12-06T05:08:31.844Z,52.45
2017-12-06T05:10:58.188Z,53.36
2017-12-06T05:13:24.620Z,51.86
2017-12-06T05:15:51.024Z,51.71
2017-12-06T05:18:17.353Z,53.68
2017-12-06T05:20:43.753Z,51.87
2017-12-06T05:23:10.105Z,53.32
2017-12-06T05:25:36.492Z,52.98
2017-12-06T05:28:02.986Z,53.05
2017-12-06T05:30:29.343Z,51.87
2017-12-06T05:32:55.684Z,52.24
2017-12-06T05:35:22.080Z,52.47
2017-12-06T05:37:48.442Z,52.33
2017-12-06T05:40:14.817Z,53.75
2017-12-06T05:42:41.228Z,55.00
2017-12-06T05:45:07.612Z,54.51
2017-12-06T05:47:33.995Z,52.22
2017-12-06T05:50:00.412Z,52.52
2017-12-06T05:52:26.753Z,52.99
2017-12-06T05:54:53.135Z,53.21
2017-12-06T05:57:19.507Z,53.36
2017-12-06T05:59:45.848Z,53.46
2017-12-06T06:02:12.225Z,53.64
2017-12-06T06:04:38.637Z,53.16
2017-12-06T06:07:04.985Z,53.62
2017-12-06T06:09:31.838Z,53.51
2017-12-06T06:11:58.240Z,54.25
2017-12-06T06:14:24.584Z,53.95
2017-12-06T06:16:50.967Z,54.23
2017-12-06T06:19:17.484Z,54.67
2017-12-06T06:21:43.879Z,54.60
2017-12-06T06:24:10.368Z,54.77
2017-12-06T06:26:36.827Z,57.39
2017-12-06T06:29:03.222Z,56.11
2017-12-06T06:31:29.573Z,53.92
2017-12-06T06:33:55.948Z,53.95
2017-12-06T06:36:22.316Z,53.50
2017-12-06T06:38:48.680Z,54.83
2017-12-06T06:41:15.140Z,55.96
2017-12-06T06:43:41.592Z,53.64
2017-12-06T06:46:07.943Z,54.47
2017-12-06T06:48:34.528Z,52.36
2017-12-06T06:51:00.868Z,53.10
2017-12-06T06:53:27.229Z,53.21
2017-12-06T06:55:53.646Z,53.34
2017-12-06T06:58:20.013Z,51.86
2017-12-06T07:00:46.355Z,51.78
2017-12-06T07:03:12.859Z,52.67
2017-12-06T07:05:39.238Z,52.71
2017-12-06T07:08:05.676Z,52.66
2017-12-06T07:10:32.094Z,53.73
2017-12-06T07:12:58.515Z,53.45
2017-12-06T07:15:24.906Z,55.82
2017-12-06T07:17:51.356Z,54.26
2017-12-06T07:20:17.717Z,53.42
2017-12-06T07:22:44.092Z,53.58
2017-12-06T07:25:10.541Z,53.58
2017-12-06T07:27:37.101Z,54.93
2017-12-06T07:30:03.607Z,55.60
2017-12-06T07:32:30.178Z,55.29
2017-12-06T07:34:56.643Z,55.10
2017-12-06T07:37:23.096Z,55.33
2017-12-06T07:39:49.884Z,57.29
2017-12-06T07:42:16.424Z,55.26
2017-12-06T07:44:42.820Z,54.46
2017-12-06T07:47:09.234Z,55.10
2017-12-06T07:49:35.724Z,56.55
2017-12-06T07:52:02.145Z,55.73
2017-12-06T07:54:28.541Z,57.93
2017-12-06T07:56:54.904Z,56.11
2017-12-06T07:59:21.260Z,54.57
2017-12-06T08:01:47.648Z,54.61
2017-12-06T08:04:14.018Z,54.69
2017-12-06T08:06:40.366Z,55.85
2017-12-06T08:09:06.764Z,54.79
2017-12-06T08:11:33.169Z,54.76
2017-12-06T08:13:59.556Z,55.92
2017-12-06T08:16:26.089Z,54.91
2017-12-06T08:18:52.467Z,55.08
2017-12-06T08:21:18.899Z,55.93
2017-12-06T08:23:45.328Z,56.01
2017-12-06T08:26:11.729Z,55.56
2017-12-06T08:28:38.100Z,55.27
2017-12-06T08:31:04.512Z,55.46
2017-12-06T08:33:30.885Z,55.20
2017-12-06T08:35:57.476Z,55.02
2017-12-06T08:38:24.120Z,55.48
2017-12-06T08:40:50.601Z,55.67
2017-12-06T08:43:17.054Z,55.32
2017-12-06T08:45:43.487Z,56.10
2017-12-06T08:48:09.900Z,55.35
2017-12-06T08:50:36.284Z,55.20
2017-12-06T08:53:02.693Z,54.84
2017-12-06T08:55:29.144Z,54.73
2017-12-06T08:57:55.468Z,54.79
2017-12-06T09:00:21.893Z,54.41
2017-12-06T09:02:48.350Z,54.07
2017-12-06T09:05:15.344Z,53.76
2017-12-06T09:07:41.771Z,53.49
2017-12-06T09:10:08.164Z,54.20
2017-12-06T09:12:35.664Z,53.88
2017-12-06T09:15:02.152Z,53.64
2017-12-06T09:17:28.589Z,53.50
2017-12-06T09:19:55.092Z,53.41
2017-12-06T09:22:27.911Z,53.42
2017-12-06T09:24:56.005Z,53.72
2017-12-06T09:27:22.372Z,53.93
2017-12-06T09:29:48.809Z,53.59
2017-12-06T09:32:15.168Z,53.18
2017-12-06T09:34:41.592Z,53.21
2017-12-06T09:37:08.009Z,52.88
2017-12-06T09:39:34.396Z,52.97
2017-12-06T09:42:00.821Z,52.30
2017-12-06T09:44:27.247Z,52.37
2017-12-06T09:46:53.608Z,51.61
2017-12-06T09:49:20.361Z,52.86
2017-12-06T09:51:46.790Z,51.79
2017-12-06T09:54:13.256Z,51.87
2017-12-06T09:56:39.785Z,51.57
2017-12-06T09:59:06.173Z,51.64
2017-12-06T10:01:32.552Z,50.57
2017-12-06T10:03:58.912Z,50.84
2017-12-06T10:06:25.319Z,50.67
2017-12-06T10:08:51.668Z,49.77
2017-12-06T10:11:18.241Z,50.14
2017-12-06T10:13:44.636Z,50.17
2017-12-06T10:16:11.019Z,50.54
2017-12-06T10:18:37.757Z,49.92
2017-12-06T10:21:04.297Z,49.35
2017-12-06T10:23:30.852Z,50.00
2017-12-06T10:25:57.276Z,50.32
2017-12-06T10:28:23.817Z,49.76
2017-12-06T10:30:50.232Z,49.53
2017-12-06T10:33:16.666Z,50.16
2017-12-06T10:35:43.176Z,49.30
2017-12-06T10:38:09.637Z,49.79
2017-12-06T10:40:36.195Z,48.91
2017-12-06T10:43:02.674Z,49.82
2017-12-06T10:45:29.076Z,49.34
2017-12-06T10:47:55.536Z,49.15
2017-12-06T10:50:21.924Z,49.93
2017-12-06T10:52:48.312Z,49.10
2017-12-06T10:55:14.696Z,51.34
2017-12-06T10:57:41.135Z,49.13
2017-12-06T11:00:07.569Z,48.64
2017-12-06T11:02:34.037Z,48.96
2017-12-06T11:05:00.460Z,48.49
2017-12-06T11:07:26.841Z,48.88
2017-12-06T11:09:53.201Z,50.43
2017-12-06T11:12:19.594Z,50.50
2017-12-06T11:14:45.936Z,49.25
2017-12-06T11:17:14.209Z,50.59
2017-12-06T11:19:40.741Z,49.46
2017-12-06T11:22:07.192Z,49.03
2017-12-06T11:24:33.584Z,49.02
2017-12-06T11:26:59.972Z,49.34
2017-12-06T11:29:26.332Z,48.61
2017-12-06T11:31:52.940Z,48.73
2017-12-06T11:34:19.455Z,47.87
2017-12-06T11:36:45.876Z,48.02
2017-12-06T11:39:12.243Z,47.81
2017-12-06T11:41:38.651Z,47.59
2017-12-06T11:44:05.001Z,47.98
2017-12-06T11:46:31.381Z,48.47
2017-12-06T11:48:57.788Z,47.99
2017-12-06T11:51:24.153Z,48.03
2017-12-06T11:53:50.499Z,47.69
2017-12-06T11:56:17.095Z,48.07
2017-12-06T11:58:43.492Z,48.33
2017-12-06T12:01:11.788Z,48.90
2017-12-06T12:03:38.316Z,48.79
2017-12-06T12:06:04.665Z,48.00
2017-12-06T12:08:31.033Z,48.72
2017-12-06T12:10:57.527Z,48.86
2017-12-06T12:13:23.901Z,48.38
2017-12-06T12:15:50.377Z,48.26
2017-12-06T12:18:16.889Z,49.09
2017-12-06T12:20:43.349Z,48.10
2017-12-06T12:23:09.716Z,47.64
2017-12-06T12:25:36.156Z,47.69
2017-12-06T12:28:02.528Z,48.38
2017-12-06T12:30:28.872Z,47.62
2017-12-06T12:32:55.254Z,48.60
2017-12-06T12:35:21.648Z,47.67
2017-12-06T12:37:48.073Z,47.82
2017-12-06T12:40:14.639Z,48.26
2017-12-06T12:42:41.880Z,48.41
2017-12-06T12:45:08.344Z,49.19
2017-12-06T12:47:34.916Z,48.11
2017-12-06T12:50:01.384Z,48.99
2017-12-06T12:52:27.840Z,48.26
2017-12-06T12:54:54.332Z,48.54
2017-12-06T12:57:20.788Z,48.58
2017-12-06T12:59:47.244Z,48.12
2017-12-06T13:02:13.840Z,47.44
2017-12-06T13:04:40.290Z,48.43
2017-12-06T13:07:06.760Z,48.06
2017-12-06T13:09:33.248Z,48.42
2017-12-06T13:11:59.720Z,48.42
2017-12-06T13:14:26.179Z,48.45
2017-12-06T13:16:52.672Z,48.76
2017-12-06T13:19:19.121Z,48.90
2017-12-06T13:21:45.578Z,49.36
2017-12-06T13:24:12.079Z,49.93
2017-12-06T13:26:38.589Z,49.75
2017-12-06T13:29:05.136Z,49.76
2017-12-06T13:31:31.641Z,49.84
2017-12-06T13:33:58.080Z,50.46
2017-12-06T13:36:24.488Z,49.83
2017-12-06T13:38:50.990Z,49.76
2017-12-06T13:41:17.480Z,49.65
2017-12-06T13:43:43.925Z,51.12
2017-12-06T13:46:10.557Z,49.51
2017-12-06T13:48:37.104Z,49.82
2017-12-06T13:51:03.549Z,50.32
2017-12-06T13:53:30.044Z,51.04
2017-12-06T13:55:56.607Z,50.04
2017-12-06T13:58:23.056Z,50.08
2017-12-06T14:00:49.520Z,51.00
2017-12-06T14:03:15.924Z,49.66
2017-12-06T14:05:42.357Z,49.31
2017-12-06T14:08:08.816Z,49.93
2017-12-06T14:10:35.196Z,49.66
2017-12-06T14:13:01.682Z,49.85
2017-12-06T14:15:28.165Z,50.12
2017-12-06T14:17:54.620Z,49.95
2017-12-06T14:20:21.209Z,49.58
2017-12-06T14:22:47.744Z,49.76
2017-12-06T14:25:14.401Z,50.00
2017-12-06T14:27:40.968Z,51.60
2017-12-06T14:30:07.608Z,50.14
2017-12-06T14:32:34.092Z,50.07
2017-12-06T14:35:00.682Z,50.56
2017-12-06T14:37:27.164Z,51.21
2017-12-06T14:39:53.817Z,49.90
2017-12-06T14:42:20.280Z,49.97
2017-12-06T14:44:46.796Z,49.97
2017-12-06T14:47:13.223Z,49.68
2017-12-06T14:49:39.677Z,50.23
2017-12-06T14:52:06.148Z,50.03
2017-12-06T14:54:32.710Z,50.26
2017-12-06T14:56:59.161Z,51.09
2017-12-06T14:59:25.782Z,50.68
2017-12-06T15:01:52.225Z,51.45
2017-12-06T15:04:18.678Z,50.78
2017-12-06T15:06:45.237Z,50.44
2017-12-06T15:09:11.725Z,50.74
2017-12-06T15:11:38.188Z,51.46
2017-12-06T15:14:04.692Z,50.80
2017-12-06T15:16:31.151Z,50.82
2017-12-06T15:18:57.661Z,51.36
2017-12-06T15:21:24.140Z,53.56
2017-12-06T15:23:50.764Z,52.61
2017-12-06T15:26:17.200Z,51.78
2017-12-06T15:28:43.800Z,53.59
2017-12-06T15:31:10.249Z,51.35
2017-12-06T15:33:36.714Z,52.22
2017-12-06T15:36:03.369Z,51.21
2017-12-06T15:38:29.844Z,51.52
2017-12-06T15:40:56.424Z,52.14
2017-12-06T15:43:23.010Z,51.58
2017-12-06T15:45:49.548Z,51.24
2017-12-06T15:48:16.065Z,51.27
2017-12-06T15:50:42.584Z,51.83
2017-12-06T15:53:09.028Z,51.03
2017-12-06T15:55:35.493Z,52.28
2017-12-06T15:58:01.941Z,53.11
2017-12-06T16:00:28.405Z,51.61
2017-12-06T16:02:54.833Z,51.50
2017-12-06T16:05:21.296Z,52.07
2017-12-06T16:07:47.792Z,51.48
2017-12-06T16:10:14.236Z,51.84
2017-12-06T16:12:40.687Z,52.02
2017-12-06T16:15:07.154Z,51.95
2017-12-06T16:17:34.203Z,52.96
2017-12-06T16:20:00.679Z,53.46
2017-12-06T16:22:27.151Z,51.68
2017-12-06T16:24:53.630Z,52.73
2017-12-06T16:27:20.140Z,53.15
2017-12-06T16:29:46.585Z,52.04
2017-12-06T16:32:13.043Z,52.01
2017-12-06T16:34:40.733Z,52.97
2017-12-06T16:37:19.421Z,52.68
2017-12-06T16:39:45.956Z,51.93
2017-12-06T16:42:12.398Z,52.36
2017-12-06T16:44:38.853Z,53.94
2017-12-06T16:47:05.287Z,52.76
2017-12-06T16:49:31.730Z,52.52
2017-12-06T16:51:58.194Z,52.89
2017-12-06T16:54:24.616Z,51.98
2017-12-06T16:56:51.019Z,52.78
2017-12-06T16:59:17.445Z,52.04
2017-12-06T17:01:44.152Z,52.63
2017-12-06T17:04:10.620Z,51.87
2017-12-06T17:06:37.354Z,52.29
2017-12-06T17:09:03.872Z,52.13
2017-12-06T17:11:30.308Z,51.35
2017-12-06T17:13:56.846Z,50.83
2017-12-06T17:16:23.328Z,52.09
2017-12-06T17:18:49.792Z,51.42
2017-12-06T17:21:16.264Z,51.38
2017-12-06T17:23:42.837Z,51.47
2017-12-06T17:26:09.260Z,51.07
2017-12-06T17:28:47.769Z,54.04
2017-12-06T17:31:26.396Z,51.31
2017-12-06T17:33:52.784Z,51.44
2017-12-06T17:36:19.214Z,56.28
2017-12-06T17:38:45.797Z,51.56
2017-12-06T17:41:12.337Z,52.20
2017-12-06T17:43:38.791Z,53.17
2017-12-06T17:46:05.245Z,51.82
2017-12-06T17:48:31.760Z,53.49
2017-12-06T17:50:58.225Z,52.67
2017-12-06T17:53:24.680Z,54.97
2017-12-06T17:55:51.173Z,55.89
2017-12-06T17:58:17.594Z,52.95
2017-12-06T18:00:44.037Z,52.48
2017-12-06T18:03:10.528Z,52.51
2017-12-06T18:05:36.964Z,53.00
2017-12-06T18:08:03.409Z,52.29
2017-12-06T18:10:29.913Z,51.67
2017-12-06T18:12:56.369Z,51.78
2017-12-06T18:15:22.832Z,51.71
2017-12-06T18:17:49.371Z,51.44
2017-12-06T18:20:15.785Z,51.75
2017-12-06T18:22:42.234Z,51.52
2017-12-06T18:25:08.732Z,52.19
2017-12-06T18:27:35.141Z,52.16
2017-12-06T18:30:01.591Z,51.58
2017-12-06T18:32:28.075Z,51.77
2017-12-06T18:34:54.610Z,52.44
2017-12-06T18:37:21.102Z,52.29
2017-12-06T18:39:47.782Z,51.71
2017-12-06T18:42:14.420Z,53.34
2017-12-06T18:44:40.905Z,51.07
2017-12-06T18:47:07.363Z,51.01
2017-12-06T18:49:33.749Z,52.08
2017-12-06T18:52:00.217Z,50.83
2017-12-06T18:54:26.660Z,51.98
2017-12-06T18:56:53.047Z,50.98
2017-12-06T18:59:19.435Z,50.92
2017-12-06T19:01:45.863Z,51.28
2017-12-06T19:04:12.284Z,51.31
2017-12-06T19:06:38.705Z,51.75
2017-12-06T19:09:05.144Z,53.22
2017-12-06T19:11:31.603Z,53.16
2017-12-06T19:13:58.021Z,51.65
2017-12-06T19:16:24.452Z,53.87
2017-12-06T19:18:50.816Z,51.56
2017-12-06T19:21:17.489Z,53.81
2017-12-06T19:23:43.921Z,51.26
2017-12-06T19:26:10.296Z,51.92
2017-12-06T19:28:36.676Z,51.55
2017-12-06T19:31:03.111Z,51.02
2017-12-06T19:33:29.521Z,53.78
2017-12-06T19:35:55.872Z,52.45
2017-12-06T19:38:22.276Z,51.29
2017-12-06T19:40:48.633Z,51.44
2017-12-06T19:43:15.020Z,51.74
2017-12-06T19:45:41.452Z,50.75
2017-12-06T19:48:07.809Z,51.41
2017-12-06T19:50:34.140Z,51.67
2017-12-06T19:53:00.532Z,51.54
2017-12-06T19:55:26.896Z,52.25
2017-12-06T19:57:53.236Z,51.18
2017-12-06T20:00:19.772Z,51.09
2017-12-06T20:02:46.109Z,53.90
2017-12-06T20:05:12.488Z,51.50
2017-12-06T20:07:38.896Z,51.73
2017-12-06T20:10:05.232Z,52.40
2017-12-06T20:12:31.590Z,52.47
2017-12-06T20:14:58.064Z,51.79
2017-12-06T20:17:24.588Z,51.91
2017-12-06T20:19:50.952Z,52.58
2017-12-06T20:22:17.397Z,51.76
2017-12-06T20:24:43.749Z,51.80
2017-12-06T20:27:10.102Z,52.30
2017-12-06T20:29:36.493Z,52.98
2017-12-06T20:32:02.900Z,53.46
2017-12-06T20:34:29.249Z,53.70
2017-12-06T20:36:55.629Z,54.51
2017-12-06T20:39:22.010Z,52.67
2017-12-06T20:41:48.397Z,53.73
2017-12-06T20:44:15.022Z,55.01
2017-12-06T20:46:41.408Z,53.61
2017-12-06T20:49:07.828Z,52.41
2017-12-06T20:51:34.320Z,55.70
2017-12-06T20:54:00.792Z,53.47
2017-12-06T20:56:27.172Z,52.14
2017-12-06T20:58:53.582Z,52.54
2017-12-06T21:01:19.958Z,51.91
2017-12-06T21:03:46.329Z,56.75
2017-12-06T21:06:12.753Z,51.96
2017-12-06T21:08:39.186Z,54.56
2017-12-06T21:11:05.615Z,55.10
2017-12-06T21:13:32.072Z,52.26
2017-12-06T21:15:58.497Z,54.51
2017-12-06T21:18:24.929Z,52.27
2017-12-06T21:20:51.453Z,51.65
2017-12-06T21:23:18.032Z,51.69
2017-12-06T21:25:44.445Z,51.92
2017-12-06T21:28:10.870Z,54.51
2017-12-06T21:30:37.400Z,51.38
2017-12-06T21:33:03.804Z,52.93
2017-12-06T21:35:30.232Z,53.02
2017-12-06T21:37:56.608Z,52.58
2017-12-06T21:40:23.248Z,52.24
2017-12-06T21:42:49.656Z,52.36
2017-12-06T21:45:16.008Z,52.14
2017-12-06T21:47:42.349Z,52.70
2017-12-06T21:50:08.759Z,53.49
2017-12-06T21:52:35.132Z,53.63
2017-12-06T21:55:01.540Z,54.81
2017-12-06T21:57:27.928Z,55.33
2017-12-06T21:59:54.308Z,53.78
2017-12-06T22:02:20.652Z,54.08
2017-12-06T22:04:59.336Z,54.45
2017-12-06T22:07:25.716Z,54.63
2017-12-06T22:09:52.088Z,54.81
2017-12-06T22:12:18.534Z,55.05
2017-12-06T22:14:44.923Z,55.13
2017-12-06T22:17:11.273Z,55.51
2017-12-06T22:19:37.679Z,56.04
2017-12-06T22:22:04.048Z,56.03
2017-12-06T22:24:30.393Z,56.05
2017-12-06T22:26:56.784Z,56.01
2017-12-06T22:29:23.149Z,55.98
2017-12-06T22:31:49.488Z,55.77
2017-12-06T22:34:15.924Z,55.40
2017-12-06T22:36:42.290Z,55.48
2017-12-06T22:39:08.659Z,55.35
2017-12-06T22:41:35.068Z,55.54
2017-12-06T22:44:01.436Z,55.83
2017-12-06T22:46:27.780Z,56.08
2017-12-06T22:48:54.187Z,56.20
2017-12-06T22:51:20.646Z,56.33
2017-12-06T22:53:47.065Z,56.59
2017-12-06T22:56:13.548Z,56.58
2017-12-06T22:58:39.896Z,56.57
2017-12-06T23:01:06.305Z,56.42
2017-12-06T23:03:32.759Z,56.72
2017-12-06T23:05:59.121Z,57.19
2017-12-06T23:08:25.533Z,57.35
2017-12-06T23:10:51.943Z,57.03
2017-12-06T23:13:18.360Z,57.15
2017-12-06T23:15:44.748Z,58.76
2017-12-06T23:18:11.177Z,56.88
2017-12-06T23:20:37.539Z,57.13
2017-12-06T23:23:03.906Z,57.45
2017-12-06T23:25:30.352Z,57.28
2017-12-06T23:27:56.752Z,57.28
2017-12-06T23:30:24.273Z,58.07
2017-12-06T23:32:50.687Z,57.73
2017-12-06T23:35:17.059Z,57.76
2017-12-06T23:37:43.431Z,57.83
2017-12-06T23:40:09.896Z,58.01
2017-12-06T23:42:36.283Z,57.94
2017-12-06T23:45:02.712Z,58.11
2017-12-06T23:47:29.129Z,58.48
2017-12-06T23:49:55.515Z,58.88
2017-12-06T23:52:21.888Z,58.93
2017-12-06T23:54:48.292Z,58.92
2017-12-06T23:57:14.672Z,59.33
2017-12-06T23:59:41.015Z,59.71
